HYS275 LRCL-LROP
Flight info
| Callsign | HYS275 |
|---|---|
| Flight time | 0h 35m |
| Altitude | 33000 |
| Route | IRLOX DCT BIVBU DCT TOSVI |
| Aircraft | A320/M-SDE1E2E3FGIJ1J4RWXY/LB1 |
Departure
| Time | 2026-04-25 08:16 |
|---|---|
| Airport | Avram Iancu Cluj International Airport (LRCL) |
Arrival
| Time | 2026-04-25 08:51 |
|---|---|
| Airport | Bucharest Henri Coandă International Airport (LROP) |
| Time | Latitude | Longitude | Altitude | Speed | Heading |
|---|---|---|---|---|---|
| 2026-04-25 07:45 | 46.78577 | 23.69413 | 1043 ft | 0 kts | 71° |
| 2026-04-25 08:08 | 46.78577 | 23.69411 | 1043 ft | 1 kts | 71° |
| 2026-04-25 08:08 | 46.78571 | 23.69387 | 1043 ft | 3 kts | 71° |
| 2026-04-25 08:09 | 46.78566 | 23.69362 | 1043 ft | 3 kts | 65° |
| 2026-04-25 08:09 | 46.78557 | 23.69341 | 1043 ft | 3 kts | 20° |
| 2026-04-25 08:09 | 46.78540 | 23.69340 | 1043 ft | 3 kts | 340° |
| 2026-04-25 08:09 | 46.78525 | 23.69348 | 1043 ft | 1 kts | 342° |
| 2026-04-25 08:10 | 46.78524 | 23.69349 | 1043 ft | 0 kts | 342° |
| 2026-04-25 08:12 | 46.78525 | 23.69348 | 1043 ft | 2 kts | 342° |
| 2026-04-25 08:12 | 46.78570 | 23.69326 | 1043 ft | 10 kts | 342° |
| 2026-04-25 08:13 | 46.78647 | 23.69290 | 1043 ft | 13 kts | 341° |
| 2026-04-25 08:13 | 46.78747 | 23.69242 | 1043 ft | 17 kts | 342° |
| 2026-04-25 08:13 | 46.78862 | 23.69185 | 1043 ft | 14 kts | 346° |
| 2026-04-25 08:14 | 46.78976 | 23.69433 | 1043 ft | 19 kts | 72° |
| 2026-04-25 08:14 | 46.78996 | 23.69589 | 1043 ft | 13 kts | 78° |
| 2026-04-25 08:14 | 46.79020 | 23.69614 | 1043 ft | 4 kts | 309° |
| 2026-04-25 08:14 | 46.79011 | 23.69578 | 1043 ft | 5 kts | 246° |
| 2026-04-25 08:15 | 46.78992 | 23.69503 | 1043 ft | 18 kts | 251° |
| 2026-04-25 08:15 | 46.78867 | 23.68946 | 1043 ft | 94 kts | 252° |
| 2026-04-25 08:15 | 46.78599 | 23.67758 | 1046 ft | 150 kts | 252° |
| 2026-04-25 08:15 | 46.78259 | 23.66246 | 1547 ft | 158 kts | 252° |
| 2026-04-25 08:16 | 46.77915 | 23.64725 | 2299 ft | 157 kts | 252° |
| 2026-04-25 08:16 | 46.77573 | 23.63223 | 2976 ft | 155 kts | 252° |
| 2026-04-25 08:16 | 46.77231 | 23.61734 | 3642 ft | 154 kts | 251° |
| 2026-04-25 08:16 | 46.76891 | 23.60256 | 4287 ft | 155 kts | 252° |
| 2026-04-25 08:17 | 46.76531 | 23.58659 | 4666 ft | 175 kts | 252° |
| 2026-04-25 08:17 | 46.76141 | 23.56893 | 5100 ft | 192 kts | 252° |
| 2026-04-25 08:17 | 46.75615 | 23.55004 | 5474 ft | 215 kts | 236° |
| 2026-04-25 08:17 | 46.74369 | 23.53625 | 5875 ft | 243 kts | 197° |
| 2026-04-25 08:18 | 46.72621 | 23.53645 | 6361 ft | 268 kts | 161° |
| 2026-04-25 08:18 | 46.70948 | 23.54950 | 7157 ft | 279 kts | 144° |
| 2026-04-25 08:18 | 46.69373 | 23.56639 | 8115 ft | 283 kts | 143° |
| 2026-04-25 08:18 | 46.67782 | 23.58365 | 9083 ft | 287 kts | 143° |
| 2026-04-25 08:19 | 46.66174 | 23.60125 | 10026 ft | 291 kts | 143° |
| 2026-04-25 08:19 | 46.64511 | 23.61955 | 10560 ft | 311 kts | 143° |
| 2026-04-25 08:19 | 46.62734 | 23.63914 | 11068 ft | 327 kts | 143° |
| 2026-04-25 08:19 | 46.60901 | 23.65936 | 11842 ft | 333 kts | 143° |
| 2026-04-25 08:20 | 46.59044 | 23.67988 | 12645 ft | 338 kts | 143° |
| 2026-04-25 08:20 | 46.57163 | 23.70062 | 13424 ft | 342 kts | 143° |
| 2026-04-25 08:20 | 46.55255 | 23.72158 | 14199 ft | 345 kts | 143° |
| 2026-04-25 08:20 | 46.53327 | 23.74271 | 14949 ft | 349 kts | 143° |
| 2026-04-25 08:21 | 46.51378 | 23.76406 | 15652 ft | 353 kts | 143° |
| 2026-04-25 08:21 | 46.49409 | 23.78564 | 16340 ft | 357 kts | 143° |
| 2026-04-25 08:21 | 46.47421 | 23.80747 | 17020 ft | 360 kts | 143° |
| 2026-04-25 08:21 | 46.45413 | 23.82953 | 17687 ft | 364 kts | 143° |
| 2026-04-25 08:22 | 46.43381 | 23.85179 | 18337 ft | 368 kts | 143° |
| 2026-04-25 08:22 | 46.41328 | 23.87420 | 18998 ft | 371 kts | 143° |
| 2026-04-25 08:22 | 46.39254 | 23.89679 | 19652 ft | 375 kts | 143° |
| 2026-04-25 08:22 | 46.37158 | 23.91958 | 20308 ft | 378 kts | 143° |
| 2026-04-25 08:23 | 46.35045 | 23.94255 | 20899 ft | 382 kts | 143° |
| 2026-04-25 08:23 | 46.32911 | 23.96574 | 21471 ft | 385 kts | 143° |
| 2026-04-25 08:23 | 46.30756 | 23.98911 | 22020 ft | 389 kts | 143° |
| 2026-04-25 08:23 | 46.28585 | 24.01265 | 22553 ft | 392 kts | 143° |
| 2026-04-25 08:24 | 46.26396 | 24.03638 | 23088 ft | 395 kts | 143° |
| 2026-04-25 08:24 | 46.24188 | 24.06029 | 23624 ft | 398 kts | 143° |
| 2026-04-25 08:24 | 46.21962 | 24.08437 | 24143 ft | 401 kts | 143° |
| 2026-04-25 08:24 | 46.19718 | 24.10866 | 24638 ft | 405 kts | 143° |
| 2026-04-25 08:25 | 46.17458 | 24.13309 | 25131 ft | 408 kts | 143° |
| 2026-04-25 08:25 | 46.15179 | 24.15771 | 25593 ft | 411 kts | 143° |
| 2026-04-25 08:25 | 46.12879 | 24.18252 | 26057 ft | 414 kts | 143° |
| 2026-04-25 08:25 | 46.10565 | 24.20746 | 26533 ft | 417 kts | 143° |
| 2026-04-25 08:26 | 46.08231 | 24.23255 | 26908 ft | 420 kts | 143° |
| 2026-04-25 08:26 | 46.05897 | 24.25758 | 26992 ft | 413 kts | 143° |
| 2026-04-25 08:26 | 46.03636 | 24.28176 | 27009 ft | 398 kts | 143° |
| 2026-04-25 08:26 | 46.01433 | 24.30532 | 27009 ft | 393 kts | 143° |
| 2026-04-25 08:27 | 45.99241 | 24.32874 | 27009 ft | 392 kts | 143° |
| 2026-04-25 08:27 | 45.97057 | 24.35208 | 27009 ft | 391 kts | 143° |
| 2026-04-25 08:27 | 45.94875 | 24.37538 | 27010 ft | 391 kts | 143° |
| 2026-04-25 08:27 | 45.92693 | 24.39868 | 27009 ft | 391 kts | 143° |
| 2026-04-25 08:28 | 45.90511 | 24.42198 | 27009 ft | 391 kts | 143° |
| 2026-04-25 08:28 | 45.88328 | 24.44523 | 27010 ft | 391 kts | 143° |
| 2026-04-25 08:28 | 45.86145 | 24.46841 | 27010 ft | 391 kts | 143° |
| 2026-04-25 08:28 | 45.83961 | 24.49158 | 27011 ft | 391 kts | 143° |
| 2026-04-25 08:29 | 45.81775 | 24.51477 | 27014 ft | 391 kts | 143° |
| 2026-04-25 08:29 | 45.79588 | 24.53796 | 27015 ft | 391 kts | 143° |
| 2026-04-25 08:29 | 45.77401 | 24.56115 | 27019 ft | 391 kts | 143° |
| 2026-04-25 08:29 | 45.75214 | 24.58438 | 27021 ft | 391 kts | 143° |
| 2026-04-25 08:30 | 45.73028 | 24.60755 | 27023 ft | 391 kts | 143° |
| 2026-04-25 08:30 | 45.70841 | 24.63067 | 27019 ft | 389 kts | 144° |
| 2026-04-25 08:30 | 45.68681 | 24.65344 | 26716 ft | 383 kts | 144° |
| 2026-04-25 08:30 | 45.66542 | 24.67593 | 26302 ft | 380 kts | 144° |
| 2026-04-25 08:31 | 45.64415 | 24.69831 | 25837 ft | 379 kts | 144° |
| 2026-04-25 08:31 | 45.62295 | 24.72064 | 25354 ft | 378 kts | 144° |
| 2026-04-25 08:31 | 45.60181 | 24.74287 | 24888 ft | 377 kts | 144° |
| 2026-04-25 08:31 | 45.58074 | 24.76499 | 24443 ft | 375 kts | 144° |
| 2026-04-25 08:32 | 45.55981 | 24.78694 | 24014 ft | 372 kts | 144° |
| 2026-04-25 08:32 | 45.53909 | 24.80865 | 23622 ft | 368 kts | 144° |
| 2026-04-25 08:32 | 45.51855 | 24.83017 | 23208 ft | 365 kts | 144° |
| 2026-04-25 08:32 | 45.49817 | 24.85152 | 22779 ft | 362 kts | 144° |
| 2026-04-25 08:33 | 45.47792 | 24.87269 | 22442 ft | 359 kts | 144° |
| 2026-04-25 08:33 | 45.45779 | 24.89370 | 22163 ft | 359 kts | 144° |
| 2026-04-25 08:33 | 45.43764 | 24.91470 | 21889 ft | 360 kts | 144° |
| 2026-04-25 08:33 | 45.41749 | 24.93573 | 21552 ft | 358 kts | 144° |
| 2026-04-25 08:34 | 45.39747 | 24.95659 | 21202 ft | 356 kts | 144° |
| 2026-04-25 08:34 | 45.37757 | 24.97724 | 20852 ft | 352 kts | 144° |
| 2026-04-25 08:34 | 45.35788 | 24.99767 | 20502 ft | 349 kts | 144° |
| 2026-04-25 08:34 | 45.33834 | 25.01799 | 20137 ft | 346 kts | 144° |
| 2026-04-25 08:35 | 45.31900 | 25.03814 | 19747 ft | 343 kts | 144° |
| 2026-04-25 08:35 | 45.29982 | 25.05809 | 19346 ft | 341 kts | 144° |
| 2026-04-25 08:35 | 45.28720 | 25.07120 | 19067 ft | 339 kts | 144° |
| 2026-04-25 08:35 | 45.26824 | 25.09088 | 18659 ft | 336 kts | 144° |
| 2026-04-25 08:36 | 45.24941 | 25.11037 | 18144 ft | 334 kts | 144° |
| 2026-04-25 08:36 | 45.22466 | 25.13587 | 17490 ft | 330 kts | 144° |
| 2026-04-25 08:36 | 45.20614 | 25.15494 | 17006 ft | 328 kts | 144° |
| 2026-04-25 08:36 | 45.18775 | 25.17391 | 16520 ft | 326 kts | 144° |
| 2026-04-25 08:37 | 45.17541 | 25.18664 | 16202 ft | 324 kts | 144° |
| 2026-04-25 08:37 | 45.15727 | 25.20536 | 15737 ft | 321 kts | 144° |
| 2026-04-25 08:37 | 45.13928 | 25.22391 | 15273 ft | 319 kts | 144° |
| 2026-04-25 08:37 | 45.12134 | 25.24238 | 14904 ft | 318 kts | 144° |
| 2026-04-25 08:38 | 45.10352 | 25.26068 | 14550 ft | 316 kts | 144° |
| 2026-04-25 08:38 | 45.08579 | 25.27885 | 14198 ft | 314 kts | 144° |
| 2026-04-25 08:38 | 45.06816 | 25.29691 | 13843 ft | 312 kts | 144° |
| 2026-04-25 08:38 | 45.05062 | 25.31488 | 13484 ft | 311 kts | 144° |
| 2026-04-25 08:39 | 45.03318 | 25.33280 | 13126 ft | 309 kts | 144° |
| 2026-04-25 08:39 | 45.01583 | 25.35058 | 12773 ft | 307 kts | 144° |
| 2026-04-25 08:39 | 44.99858 | 25.36823 | 12421 ft | 305 kts | 144° |
| 2026-04-25 08:39 | 44.98141 | 25.38577 | 12075 ft | 303 kts | 144° |
| 2026-04-25 08:40 | 44.96436 | 25.40321 | 11707 ft | 302 kts | 144° |
| 2026-04-25 08:40 | 44.94741 | 25.42053 | 11373 ft | 300 kts | 144° |
| 2026-04-25 08:40 | 44.93053 | 25.43773 | 11022 ft | 299 kts | 144° |
| 2026-04-25 08:40 | 44.91377 | 25.45481 | 10722 ft | 295 kts | 144° |
| 2026-04-25 08:41 | 44.89720 | 25.47169 | 10408 ft | 292 kts | 144° |
| 2026-04-25 08:41 | 44.88075 | 25.48841 | 10082 ft | 291 kts | 144° |
| 2026-04-25 08:41 | 44.86440 | 25.50503 | 9743 ft | 289 kts | 144° |
| 2026-04-25 08:41 | 44.84814 | 25.52156 | 9405 ft | 288 kts | 144° |
| 2026-04-25 08:42 | 44.83194 | 25.53806 | 9063 ft | 286 kts | 144° |
| 2026-04-25 08:42 | 44.81584 | 25.55445 | 8734 ft | 285 kts | 144° |
| 2026-04-25 08:42 | 44.79980 | 25.57074 | 8409 ft | 284 kts | 144° |
| 2026-04-25 08:42 | 44.78384 | 25.58694 | 8088 ft | 282 kts | 144° |
| 2026-04-25 08:43 | 44.76795 | 25.60303 | 7757 ft | 281 kts | 144° |
| 2026-04-25 08:43 | 44.75214 | 25.61902 | 7431 ft | 279 kts | 144° |
| 2026-04-25 08:43 | 44.73639 | 25.63493 | 7106 ft | 278 kts | 144° |
| 2026-04-25 08:43 | 44.72073 | 25.65075 | 6781 ft | 277 kts | 144° |
| 2026-04-25 08:44 | 44.70513 | 25.66650 | 6447 ft | 275 kts | 144° |
| 2026-04-25 08:44 | 44.68959 | 25.68216 | 6136 ft | 274 kts | 144° |
| 2026-04-25 08:44 | 44.67415 | 25.69772 | 5880 ft | 272 kts | 144° |
| 2026-04-25 08:44 | 44.65877 | 25.71325 | 5668 ft | 272 kts | 144° |
| 2026-04-25 08:45 | 44.64355 | 25.72863 | 5470 ft | 267 kts | 144° |
| 2026-04-25 08:45 | 44.62865 | 25.74366 | 5273 ft | 261 kts | 144° |
| 2026-04-25 08:45 | 44.61401 | 25.75839 | 5033 ft | 257 kts | 144° |
| 2026-04-25 08:45 | 44.59966 | 25.77282 | 4683 ft | 259 kts | 144° |
| 2026-04-25 08:46 | 44.58491 | 25.78764 | 4240 ft | 264 kts | 144° |
| 2026-04-25 08:46 | 44.56995 | 25.80273 | 3752 ft | 263 kts | 143° |
| 2026-04-25 08:46 | 44.55770 | 25.82079 | 3454 ft | 250 kts | 123° |
| 2026-04-25 08:46 | 44.55060 | 25.84217 | 3213 ft | 236 kts | 105° |
| 2026-04-25 08:47 | 44.54848 | 25.86437 | 2981 ft | 226 kts | 88° |
| 2026-04-25 08:47 | 44.54991 | 25.88624 | 2726 ft | 224 kts | 83° |
| 2026-04-25 08:47 | 44.55159 | 25.90736 | 2455 ft | 212 kts | 83° |
| 2026-04-25 08:47 | 44.55316 | 25.92749 | 2224 ft | 203 kts | 83° |
| 2026-04-25 08:48 | 44.55461 | 25.94617 | 1991 ft | 184 kts | 83° |
| 2026-04-25 08:48 | 44.55593 | 25.96321 | 1791 ft | 165 kts | 83° |
| 2026-04-25 08:48 | 44.55709 | 25.97818 | 1588 ft | 147 kts | 83° |
| 2026-04-25 08:48 | 44.55816 | 25.99209 | 1412 ft | 141 kts | 83° |
| 2026-04-25 08:49 | 44.55920 | 26.00564 | 1249 ft | 139 kts | 83° |
| 2026-04-25 08:49 | 44.56023 | 26.01903 | 1084 ft | 138 kts | 83° |
| 2026-04-25 08:49 | 44.56125 | 26.03236 | 922 ft | 137 kts | 83° |
| 2026-04-25 08:49 | 44.56227 | 26.04564 | 758 ft | 137 kts | 84° |
| 2026-04-25 08:50 | 44.56329 | 26.05888 | 593 ft | 136 kts | 83° |
| 2026-04-25 08:50 | 44.56432 | 26.07207 | 423 ft | 136 kts | 83° |
| 2026-04-25 08:50 | 44.56529 | 26.08498 | 326 ft | 123 kts | 84° |
| 2026-04-25 08:50 | 44.56599 | 26.09462 | 323 ft | 75 kts | 84° |
| 2026-04-25 08:51 | 44.56641 | 26.10017 | 324 ft | 48 kts | 84° |
| 2026-04-25 08:51 | 44.56675 | 26.10470 | 323 ft | 44 kts | 84° |
| 2026-04-25 08:51 | 44.56693 | 26.10707 | 323 ft | 13 kts | 83° |
| 2026-04-25 08:51 | 44.56768 | 26.10764 | 321 ft | 15 kts | 354° |
| 2026-04-25 08:52 | 44.56884 | 26.10747 | 321 ft | 18 kts | 354° |
| 2026-04-25 08:52 | 44.57009 | 26.10690 | 323 ft | 20 kts | 312° |
| 2026-04-25 08:52 | 44.57067 | 26.10543 | 321 ft | 13 kts | 279° |
| 2026-04-25 08:52 | 44.57058 | 26.10395 | 323 ft | 17 kts | 263° |
| 2026-04-25 08:53 | 44.57044 | 26.10212 | 323 ft | 21 kts | 263° |
| 2026-04-25 08:53 | 44.57028 | 26.09994 | 323 ft | 24 kts | 263° |
| 2026-04-25 08:53 | 44.57008 | 26.09745 | 323 ft | 25 kts | 264° |
| 2026-04-25 08:53 | 44.56988 | 26.09489 | 323 ft | 28 kts | 264° |
| 2026-04-25 08:54 | 44.56972 | 26.09280 | 323 ft | 19 kts | 263° |
| 2026-04-25 08:54 | 44.56957 | 26.09083 | 323 ft | 22 kts | 264° |
| 2026-04-25 08:54 | 44.56940 | 26.08851 | 323 ft | 26 kts | 264° |
| 2026-04-25 08:54 | 44.56923 | 26.08625 | 323 ft | 19 kts | 264° |
| 2026-04-25 08:55 | 44.56894 | 26.08475 | 323 ft | 17 kts | 264° |
| 2026-04-25 08:55 | 44.56954 | 26.08396 | 323 ft | 13 kts | 354° |
| 2026-04-25 08:55 | 44.57045 | 26.08384 | 321 ft | 14 kts | 354° |
| 2026-04-25 08:55 | 44.57083 | 26.08378 | 321 ft | 5 kts | 355° |
| 2026-04-25 08:56 | 44.57096 | 26.08340 | 323 ft | 5 kts | 267° |
| 2026-04-25 08:56 | 44.57090 | 26.08281 | 323 ft | 4 kts | 264° |
| 2026-04-25 08:56 | 44.57088 | 26.08251 | 323 ft | 0 kts | 264° |